Weather History for College Park, MD

Change the Weather History Date:

Sunday, December 30, 2012

  Actual Average Record
Temperature  
Mean Temperature 37 °F -  
Max Temperature 42 °F 45 °F 77 °F (1984)
Min Temperature 32 °F 28 °F 11 °F (1976)
Degree Days  
Heating Degree Days 28    
Moisture  
Dew Point 24 °F    
Average Humidity 54    
Maximum Humidity 66    
Minimum Humidity 42    
Precipitation  
Precipitation 0.00 in - - ()
Sea Level Pressure  
Sea Level Pressure 30.12 in    
Wind  
Wind Speed 12 mph (WNW)    
Max Wind Speed 22 mph    
Max Gust Speed 40 mph    
Visibility 10 miles    
Events      
Averages and records for this station are not official NWS values.
T = Trace of Precipitation, MM = Missing Value Source: NWS Daily Summary

Daily Weather History Graph

Daily Weather History Graph

Search for Another Location

Airport:

Trip Planner

Search our weather history database for the weather conditions in past years. The results will help you decide how hot, cold, wet, or windy it might be!

Date:

Astronomy

Dec. 30, 2012 Rise Set
Actual Time 7:26 AM EST 4:54 PM EST
Civil Twilight 6:56 AM EST 5:24 PM EST
Nautical Twilight 6:22 AM EST 5:58 PM EST
Astronomical Twilight 5:50 AM EST 6:30 PM EST
Moon 7:22 PM EST (12/30) 8:35 AM EST (12/30)
Length of Visible Light 10h 28m
Length of Day
9h 28m
Waning Gibbous, 95% of the Moon is Illuminated
Dec 30
Waning Gibbous
Jan 4
Last Quarter
Jan 11
New
Jan 18
First Quarter
Jan 26
Full

Hourly Weather History & Observations

Time (EST) Temp. Windchill Dew Point Humidity Pressure Visibility Wind Dir Wind Speed Gust Speed Precip Events Conditions
12:00 AM 41.0 °F 33.5 °F 29.7 °F 64% 29.81 in 10.0 mi WNW 13.8 mph 21.9 mph N/A   Overcast
12:25 AM 41.0 °F 35.8 °F 29.1 °F 63% 29.83 in 10.0 mi WNW 8.1 mph 18.4 mph N/A   Overcast
12:45 AM 40.8 °F 36.9 °F 28.2 °F 61% 29.84 in 10.0 mi NW 5.8 mph 17.3 mph N/A   Overcast
1:05 AM 40.6 °F 33.4 °F 28.2 °F 61% 29.84 in 10.0 mi WNW 12.7 mph 24.2 mph N/A   Overcast
1:25 AM 40.5 °F 33.6 °F 28.4 °F 62% 29.85 in 10.0 mi WNW 11.5 mph 20.7 mph N/A   Overcast
1:50 AM 40.5 °F 33.6 °F 28.6 °F 63% 29.86 in 10.0 mi WNW 11.5 mph 17.3 mph N/A   Overcast
2:05 AM 40.5 °F 33.6 °F 28.6 °F 63% 29.87 in 10.0 mi WNW 11.5 mph 20.7 mph N/A   Overcast
2:30 AM 40.3 °F 33.9 °F 27.9 °F 61% 29.89 in 10.0 mi WNW 10.4 mph 21.9 mph N/A   Overcast
2:50 AM 40.3 °F 32.6 °F 27.5 °F 60% 29.90 in 10.0 mi WNW 13.8 mph 19.6 mph N/A   Overcast
3:15 AM 40.1 °F 32.7 °F 27.1 °F 60% 29.91 in 10.0 mi WNW 12.7 mph 26.5 mph N/A   Overcast
4:20 AM 39.7 °F 34.3 °F 27.5 °F 62% 29.93 in 10.0 mi WNW 8.1 mph 18.4 mph N/A   Overcast
4:40 AM 39.7 °F 32.3 °F 27.0 °F 60% 29.94 in 10.0 mi WNW 12.7 mph 18.4 mph N/A   Overcast
5:00 AM 39.6 °F 36.3 °F 26.8 °F 60% 29.95 in 10.0 mi WNW 4.6 mph - N/A   Overcast
5:20 AM 40.1 °F 36.1 °F 26.1 °F 57% 29.95 in 10.0 mi NNW 5.8 mph 23.0 mph N/A   Overcast
5:45 AM 39.6 °F 32.5 °F 26.1 °F 58% 29.97 in 10.0 mi WNW 11.5 mph 16.1 mph N/A   Overcast
6:05 AM 39.2 °F 32.5 °F 26.2 °F 60% 29.99 in 10.0 mi West 10.4 mph - N/A   Mostly Cloudy
6:25 AM 38.8 °F 33.2 °F 26.2 °F 61% 30.00 in 10.0 mi West 8.1 mph 17.3 mph N/A   Mostly Cloudy
6:45 AM 39.2 °F 35.0 °F 25.9 °F 59% 30.02 in 10.0 mi West 5.8 mph 15.0 mph N/A   Mostly Cloudy
7:10 AM 38.7 °F 32.4 °F 25.7 °F 60% 30.03 in 10.0 mi West 9.2 mph 17.3 mph N/A   Mostly Cloudy
7:30 AM 38.7 °F 31.8 °F 26.2 °F 61% 30.04 in 10.0 mi West 10.4 mph - N/A   Overcast
7:50 AM 38.3 °F 31.4 °F 26.4 °F 62% 30.06 in 10.0 mi WNW 10.4 mph 19.6 mph N/A   Scattered Clouds
8:10 AM 38.8 °F 31.6 °F 26.6 °F 61% 30.07 in 10.0 mi West 11.5 mph 21.9 mph N/A   Mostly Cloudy
8:30 AM 39.0 °F 29.6 °F 25.2 °F 58% 30.09 in 10.0 mi WNW 18.4 mph 23.0 mph N/A   Overcast
8:55 AM 39.4 °F 32.3 °F 23.5 °F 53% 30.10 in 10.0 mi WNW 11.5 mph 23.0 mph N/A   Mostly Cloudy
9:15 AM 39.9 °F 30.2 °F 22.6 °F 50% 30.11 in 10.0 mi West 20.7 mph 32.2 mph N/A   Scattered Clouds
9:35 AM 40.5 °F 31.5 °F 22.8 °F 49% 30.13 in 10.0 mi WNW 18.4 mph 32.2 mph N/A   Scattered Clouds
10:00 AM 40.6 °F 31.2 °F 22.3 °F 48% 30.15 in 10.0 mi NW 20.7 mph 34.5 mph N/A   Scattered Clouds
10:20 AM 40.5 °F 30.7 °F 22.1 °F 48% 30.16 in 10.0 mi WNW 21.9 mph 40.3 mph N/A   Scattered Clouds
11:00 AM 41.9 °F 34.6 °F 22.6 °F 46% 30.18 in 10.0 mi WNW 13.8 mph 26.5 mph N/A   Mostly Cloudy
11:25 AM 40.6 °F 33.4 °F 21.6 °F 47% 30.17 in 10.0 mi NW 12.7 mph 31.1 mph N/A   Overcast
12:05 PM 41.5 °F 32.4 °F 21.4 °F 45% 30.16 in 10.0 mi NW 20.7 mph 31.1 mph N/A   Mostly Cloudy
12:25 PM 41.2 °F 31.6 °F 21.0 °F 45% 30.16 in 10.0 mi NW 21.9 mph 34.5 mph N/A   Mostly Cloudy
12:45 PM 42.1 °F 33.1 °F 21.2 °F 43% 30.16 in 10.0 mi WNW 20.7 mph 31.1 mph N/A   Mostly Cloudy
1:10 PM 41.5 °F 34.2 °F 20.8 °F 44% 30.16 in 10.0 mi NW 13.8 mph 31.1 mph N/A   Scattered Clouds
1:25 PM 42.1 °F 34.5 °F 20.8 °F 43% 30.16 in 10.0 mi NW 15.0 mph 34.5 mph N/A   Scattered Clouds
1:50 PM 41.9 °F 34.6 °F 20.8 °F 43% 30.16 in 10.0 mi WNW 13.8 mph 31.1 mph N/A   Clear
2:10 PM 41.9 °F 33.7 °F 20.5 °F 42% 30.16 in 10.0 mi WNW 17.3 mph 31.1 mph N/A   Clear
2:35 PM 42.1 °F 35.2 °F 20.7 °F 42% 30.18 in 10.0 mi NW 12.7 mph 27.6 mph N/A   Clear
2:55 PM 42.3 °F 35.1 °F 21.0 °F 43% 30.19 in 10.0 mi WNW 13.8 mph 27.6 mph N/A   Clear
3:15 PM 41.4 °F 33.0 °F 21.2 °F 45% 30.21 in 10.0 mi WNW 17.3 mph 27.6 mph N/A   Scattered Clouds
3:35 PM 41.5 °F 32.9 °F 20.8 °F 44% 30.22 in 10.0 mi NW 18.4 mph 34.5 mph N/A   Scattered Clouds
4:00 PM 41.2 °F 33.7 °F 21.9 °F 46% 30.23 in 10.0 mi WNW 13.8 mph 21.9 mph N/A   Scattered Clouds
4:20 PM 40.6 °F 32.3 °F 21.7 °F 47% 30.24 in 10.0 mi NW 16.1 mph 25.3 mph N/A   Mostly Cloudy
4:40 PM 40.1 °F 32.4 °F 20.5 °F 45% 30.25 in 10.0 mi NW 13.8 mph 26.5 mph N/A   Scattered Clouds
5:00 PM 39.6 °F 31.3 °F 20.8 °F 47% 30.27 in 10.0 mi WNW 15.0 mph 20.7 mph N/A   Mostly Cloudy
5:25 PM 39.4 °F 35.2 °F 20.7 °F 47% 30.28 in 10.0 mi West 5.8 mph - N/A   Overcast
6:05 PM 38.7 °F 31.4 °F 21.2 °F 50% 30.30 in 10.0 mi West 11.5 mph 19.6 mph N/A   Overcast
6:25 PM 38.3 °F 31.4 °F 21.0 °F 50% 30.31 in 10.0 mi West 10.4 mph 19.6 mph N/A   Overcast
6:50 PM 37.8 °F 31.3 °F 20.7 °F 50% 30.31 in 10.0 mi West 9.2 mph - N/A   Mostly Cloudy
7:10 PM 37.0 °F 32.4 °F 21.0 °F 52% 30.30 in 10.0 mi West 5.8 mph - N/A   Scattered Clouds
7:50 PM 36.5 °F 29.7 °F 20.8 °F 53% 30.29 in 10.0 mi WNW 9.2 mph - N/A   Clear
8:15 PM 36.1 °F 30.6 °F 20.8 °F 54% 30.30 in 10.0 mi NW 6.9 mph - N/A   Clear
8:35 PM 35.8 °F 29.4 °F 21.0 °F 55% 30.30 in 10.0 mi WNW 8.1 mph - N/A   Clear
8:55 PM 35.6 °F 29.9 °F 20.8 °F 55% 30.31 in 10.0 mi West 6.9 mph - N/A   Clear
9:10 PM 35.2 °F 27.6 °F 21.2 °F 57% 30.32 in 10.0 mi West 10.4 mph - N/A   Clear
9:40 PM 34.7 °F 31.8 °F 21.7 °F 59% 30.33 in 10.0 mi WSW 3.5 mph - N/A   Clear
10:00 PM 34.0 °F 29.8 °F 22.1 °F 62% 30.33 in 10.0 mi WSW 4.6 mph - N/A   Clear
11:05 PM 33.3 °F 30.2 °F 22.5 °F 65% 30.34 in 10.0 mi WSW 3.5 mph - N/A   Clear
11:25 PM 32.7 °F 28.3 °F 22.5 °F 66% 30.33 in 10.0 mi WSW 4.6 mph - N/A   Clear
11:45 PM 32.9 °F 28.5 °F 22.5 °F 65% 30.33 in 10.0 mi West 4.6 mph - N/A   Clear